createdAt,value
2023-01-10T00:01:14.391Z,98076.00
2023-01-10T00:03:41.263Z,98078.22
2023-01-10T00:06:08.427Z,98084.03
2023-01-10T00:08:35.228Z,98079.09
2023-01-10T00:11:02.074Z,98089.28
2023-01-10T00:13:28.861Z,98089.19
2023-01-10T00:15:55.746Z,98099.22
2023-01-10T00:18:23.735Z,98083.22
2023-01-10T00:20:50.600Z,98090.00
2023-01-10T00:23:17.526Z,98099.56
2023-01-10T00:25:44.469Z,98103.22
2023-01-10T00:28:11.756Z,98098.16
2023-01-10T00:30:38.555Z,98096.00
2023-01-10T00:33:05.406Z,98098.31
2023-01-10T00:35:32.254Z,98123.78
2023-01-10T00:37:59.287Z,98102.13
2023-01-10T00:40:26.083Z,98118.44
2023-01-10T00:42:53.095Z,98139.41
2023-01-10T00:45:19.945Z,98127.47
2023-01-10T00:47:46.773Z,98117.88
2023-01-10T00:50:13.666Z,98125.94
2023-01-10T00:52:40.577Z,98116.13
2023-01-10T00:55:07.351Z,98134.78
2023-01-10T00:57:34.713Z,98132.88
2023-01-10T01:00:01.875Z,98138.53
2023-01-10T01:02:28.766Z,98154.97
2023-01-10T01:04:55.769Z,98171.69
2023-01-10T01:07:22.553Z,98172.50
2023-01-10T01:09:49.353Z,98160.72
2023-01-10T01:12:16.296Z,98165.66
2023-01-10T01:14:43.103Z,98179.84
2023-01-10T01:17:10.026Z,98185.00
2023-01-10T01:19:36.833Z,98183.06
2023-01-10T01:22:03.650Z,98195.16
2023-01-10T01:24:30.430Z,98183.22
2023-01-10T01:26:57.237Z,98195.22
2023-01-10T01:29:26.237Z,98192.97
2023-01-10T01:31:57.090Z,98196.41
2023-01-10T01:34:24.232Z,98194.44
2023-01-10T01:36:51.034Z,98191.28
2023-01-10T01:39:18.010Z,98198.69
2023-01-10T01:41:46.860Z,98200.72
2023-01-10T01:44:13.801Z,98191.81
2023-01-10T01:46:40.609Z,98202.06
2023-01-10T01:49:07.535Z,98202.91
2023-01-10T01:51:34.362Z,98212.97
2023-01-10T01:54:01.136Z,98206.22
2023-01-10T01:56:28.049Z,98204.81
2023-01-10T01:58:54.838Z,98204.19
2023-01-10T02:01:21.762Z,98226.78
2023-01-10T02:03:48.746Z,98208.50
2023-01-10T02:06:15.591Z,98218.97
2023-01-10T02:08:42.435Z,98228.31
2023-01-10T02:11:09.640Z,98216.28
2023-01-10T02:13:36.617Z,98216.78
2023-01-10T02:16:03.580Z,98227.31
2023-01-10T02:18:30.577Z,98219.03
2023-01-10T02:20:57.574Z,98223.06
2023-01-10T02:23:24.512Z,98228.97
2023-01-10T02:25:51.337Z,98236.09
2023-01-10T02:28:20.396Z,98236.69
2023-01-10T02:30:47.471Z,98235.28
2023-01-10T02:33:14.820Z,98240.38
2023-01-10T02:35:41.833Z,98248.78
2023-01-10T02:38:08.814Z,98253.88
2023-01-10T02:40:35.700Z,98248.44
2023-01-10T02:43:02.640Z,98244.78
2023-01-10T02:45:29.713Z,98257.06
2023-01-10T02:47:56.523Z,98256.41
2023-01-10T02:50:23.334Z,98251.38
2023-01-10T02:52:50.306Z,98248.66
2023-01-10T02:55:17.141Z,98272.81
2023-01-10T02:57:43.988Z,98273.19
2023-01-10T03:00:10.830Z,98280.28
2023-01-10T03:02:37.693Z,98272.78
2023-01-10T03:05:04.612Z,98269.78
2023-01-10T03:07:31.493Z,98272.84
2023-01-10T03:09:58.690Z,98287.34
2023-01-10T03:12:25.540Z,98281.84
2023-01-10T03:14:52.486Z,98284.25
2023-01-10T03:17:19.403Z,98286.22
2023-01-10T03:19:46.315Z,98283.91
2023-01-10T03:22:13.448Z,98289.41
2023-01-10T03:24:40.409Z,98297.13
2023-01-10T03:27:07.232Z,98298.22
2023-01-10T03:29:34.070Z,98304.78
2023-01-10T03:32:01.067Z,98309.03
2023-01-10T03:34:27.950Z,98310.72
2023-01-10T03:36:54.877Z,98313.59
2023-01-10T03:39:21.706Z,98319.03
2023-01-10T03:41:48.607Z,98336.94
2023-01-10T03:44:15.505Z,98327.94
2023-01-10T03:46:42.594Z,98327.94
2023-01-10T03:49:09.378Z,98337.41
2023-01-10T03:51:36.155Z,98341.88
2023-01-10T03:54:03.074Z,98350.69
2023-01-10T03:56:29.976Z,98375.34
2023-01-10T03:58:56.749Z,98363.97
2023-01-10T04:01:23.714Z,98352.63
2023-01-10T04:03:50.644Z,98377.38
2023-01-10T04:06:17.455Z,98368.91
2023-01-10T04:08:44.360Z,98368.81
2023-01-10T04:11:11.241Z,98375.19
2023-01-10T04:13:38.055Z,98384.84
2023-01-10T04:16:05.028Z,98386.72
2023-01-10T04:18:31.843Z,98380.78
2023-01-10T04:20:58.693Z,98385.75
2023-01-10T04:23:25.583Z,98408.09
2023-01-10T04:25:52.733Z,98403.53
2023-01-10T04:28:19.521Z,98402.03
2023-01-10T04:30:46.338Z,98395.47
2023-01-10T04:33:13.235Z,98412.47
2023-01-10T04:35:40.253Z,98412.75
2023-01-10T04:38:07.078Z,98415.47
2023-01-10T04:40:34.062Z,98424.81
2023-01-10T04:43:02.312Z,98423.78
2023-01-10T04:45:29.212Z,98430.38
2023-01-10T04:47:56.494Z,98428.91
2023-01-10T04:50:23.375Z,98438.50
2023-01-10T04:52:50.257Z,98439.28
2023-01-10T04:55:17.084Z,98442.28
2023-01-10T04:57:43.980Z,98447.03
2023-01-10T05:00:10.960Z,98447.59
2023-01-10T05:02:38.852Z,98455.19
2023-01-10T05:05:06.111Z,98477.94
2023-01-10T05:07:32.843Z,98465.28
2023-01-10T05:09:59.678Z,98478.28
2023-01-10T05:12:26.563Z,98475.81
2023-01-10T05:14:53.450Z,98479.84
2023-01-10T05:17:20.281Z,98473.97
2023-01-10T05:19:48.184Z,98488.94
2023-01-10T05:22:14.960Z,98512.13
2023-01-10T05:24:41.735Z,98485.38
2023-01-10T05:27:08.635Z,98499.03
2023-01-10T05:29:35.609Z,98495.66
2023-01-10T05:32:02.555Z,98494.06
2023-01-10T05:34:29.403Z,98503.88
2023-01-10T05:36:56.418Z,98505.00
2023-01-10T05:39:23.216Z,98500.53
2023-01-10T05:41:50.902Z,98513.19
2023-01-10T05:44:17.865Z,98504.13
2023-01-10T05:46:44.754Z,98517.19
2023-01-10T05:49:11.609Z,98516.03
2023-01-10T05:51:38.460Z,98522.63
2023-01-10T05:54:05.272Z,98523.47
2023-01-10T05:56:32.118Z,98529.34
2023-01-10T05:59:06.651Z,98528.63
2023-01-10T06:01:36.918Z,98540.41
2023-01-10T06:04:03.900Z,98546.59
2023-01-10T06:06:31.117Z,98542.38
2023-01-10T06:08:57.931Z,98542.94
2023-01-10T06:11:24.796Z,98548.22
2023-01-10T06:13:51.599Z,98555.75
2023-01-10T06:16:20.829Z,98550.47
2023-01-10T06:18:47.783Z,98564.72
2023-01-10T06:21:15.228Z,98573.38
2023-01-10T06:23:42.156Z,98571.38
2023-01-10T06:26:09.010Z,98591.34
2023-01-10T06:28:35.843Z,98594.31
2023-01-10T06:31:02.764Z,98596.19
2023-01-10T06:33:29.741Z,98600.66
2023-01-10T06:35:56.550Z,98605.66
2023-01-10T06:38:23.576Z,98605.97
2023-01-10T06:40:50.390Z,98602.97
2023-01-10T06:43:17.248Z,98619.59
2023-01-10T06:45:44.098Z,98617.13
2023-01-10T06:48:11.250Z,98629.38
2023-01-10T06:50:38.321Z,98635.19
2023-01-10T06:53:05.220Z,98637.44
2023-01-10T06:55:40.627Z,98650.78
2023-01-10T06:58:10.329Z,98651.47
2023-01-10T07:00:37.185Z,98671.66
2023-01-10T07:03:04.026Z,98656.34
2023-01-10T07:05:30.973Z,98678.22
2023-01-10T07:07:58.084Z,98667.84
2023-01-10T07:10:25.077Z,98678.63
2023-01-10T07:12:52.099Z,98685.81
2023-01-10T07:15:19.090Z,98683.72
2023-01-10T07:17:48.216Z,98706.53
2023-01-10T07:20:15.172Z,98695.56
2023-01-10T07:22:41.977Z,98701.25
2023-01-10T07:25:09.033Z,98696.50
2023-01-10T07:27:35.839Z,98712.88
2023-01-10T07:30:02.745Z,98727.44
2023-01-10T07:32:29.809Z,98714.34
2023-01-10T07:34:56.658Z,98716.66
2023-01-10T07:37:23.543Z,98699.19
2023-01-10T07:39:50.418Z,98717.00
2023-01-10T07:42:19.046Z,98711.16
2023-01-10T07:44:48.024Z,98712.22
2023-01-10T07:47:16.150Z,98733.72
2023-01-10T07:49:42.960Z,98742.50
2023-01-10T07:52:09.869Z,98726.44
2023-01-10T07:54:36.725Z,98747.22
2023-01-10T07:57:04.008Z,98757.66
2023-01-10T07:59:30.960Z,98773.00
2023-01-10T08:01:57.781Z,98761.56
2023-01-10T08:04:24.712Z,98781.41
2023-01-10T08:06:51.568Z,98766.53
2023-01-10T08:09:18.390Z,98790.00
2023-01-10T08:11:45.198Z,98785.88
2023-01-10T08:14:12.113Z,98780.00
2023-01-10T08:16:39.581Z,98796.31
2023-01-10T08:19:07.068Z,98819.91
2023-01-10T08:21:33.952Z,98816.84
2023-01-10T08:24:02.141Z,98823.22
2023-01-10T08:26:29.016Z,98808.22
2023-01-10T08:28:55.779Z,98811.97
2023-01-10T08:31:22.863Z,98818.09
2023-01-10T08:33:49.776Z,98826.78
2023-01-10T08:36:16.709Z,98838.28
2023-01-10T08:38:44.122Z,98839.00
2023-01-10T08:41:10.950Z,98864.94
2023-01-10T08:43:38.060Z,98850.38
2023-01-10T08:46:04.828Z,98869.75
2023-01-10T08:48:32.182Z,98865.25
2023-01-10T08:50:59.201Z,98878.75
2023-01-10T08:53:26.088Z,98886.28
2023-01-10T08:55:53.418Z,98871.28
2023-01-10T08:58:20.310Z,98890.53
2023-01-10T09:00:47.088Z,98893.00
2023-01-10T09:03:14.214Z,98894.63
2023-01-10T09:05:41.263Z,98893.75
2023-01-10T09:08:08.201Z,98910.81
2023-01-10T09:10:35.081Z,98919.81
2023-01-10T09:13:05.025Z,98913.13
2023-01-10T09:15:32.005Z,98911.13
2023-01-10T09:17:58.882Z,98915.94
2023-01-10T09:20:25.736Z,98934.34
2023-01-10T09:22:52.671Z,98931.56
2023-01-10T09:25:19.691Z,98932.03
2023-01-10T09:27:46.707Z,98919.16
2023-01-10T09:30:14.154Z,98929.16
2023-01-10T09:32:41.137Z,98934.75
2023-01-10T09:35:08.551Z,98943.00
2023-01-10T09:37:35.765Z,98937.41
2023-01-10T09:40:02.738Z,98952.25
2023-01-10T09:42:29.568Z,98954.88
2023-01-10T09:44:56.446Z,98957.75
2023-01-10T09:47:23.487Z,98960.22
2023-01-10T09:49:50.398Z,98964.56
2023-01-10T09:52:17.702Z,98965.16
2023-01-10T09:54:44.956Z,98953.78
2023-01-10T09:57:11.848Z,98972.75
2023-01-10T09:59:38.666Z,98967.34
2023-01-10T10:02:05.691Z,98957.75
2023-01-10T10:04:32.740Z,98983.66
2023-01-10T10:06:59.896Z,98957.75
2023-01-10T10:09:26.700Z,98967.19
2023-01-10T10:11:53.825Z,98967.72
2023-01-10T10:14:20.837Z,98965.56
2023-01-10T10:16:47.716Z,98961.47
2023-01-10T10:19:14.735Z,98966.47
2023-01-10T10:21:41.598Z,98989.84
2023-01-10T10:24:08.446Z,98985.06
2023-01-10T10:26:37.709Z,99015.06
2023-01-10T10:29:05.343Z,98997.59
2023-01-10T10:31:32.402Z,98993.50
2023-01-10T10:33:59.294Z,98993.06
2023-01-10T10:36:26.155Z,99004.41
2023-01-10T10:38:53.030Z,98995.69
2023-01-10T10:41:19.876Z,99004.63
2023-01-10T10:43:46.791Z,99002.63
2023-01-10T10:46:14.976Z,99003.22
2023-01-10T10:48:42.328Z,99004.53
2023-01-10T10:51:09.573Z,98992.81
2023-01-10T10:53:36.908Z,99016.34
2023-01-10T10:56:04.854Z,98998.59
2023-01-10T10:58:31.663Z,99004.84
2023-01-10T11:00:58.754Z,98999.69
2023-01-10T11:03:25.633Z,99021.25
2023-01-10T11:05:52.709Z,99003.63
2023-01-10T11:08:19.632Z,99016.31
2023-01-10T11:10:47.188Z,99008.63
2023-01-10T11:13:14.087Z,99000.09
2023-01-10T11:15:41.845Z,99006.16
2023-01-10T11:18:08.646Z,99023.13
2023-01-10T11:20:36.609Z,99018.13
2023-01-10T11:23:03.647Z,99030.97
2023-01-10T11:25:30.527Z,99022.84
2023-01-10T11:27:57.398Z,99018.75
2023-01-10T11:30:24.693Z,99010.44
2023-01-10T11:32:53.697Z,99030.63
2023-01-10T11:35:20.735Z,99016.72
2023-01-10T11:37:47.814Z,99023.13
2023-01-10T11:40:14.836Z,99028.16
2023-01-10T11:42:41.884Z,99023.06
2023-01-10T11:45:08.738Z,99026.75
2023-01-10T11:47:41.706Z,99020.75
2023-01-10T11:50:12.329Z,99015.44
2023-01-10T11:52:40.521Z,99049.28
2023-01-10T11:55:07.375Z,99032.38
2023-01-10T11:57:34.173Z,99046.06
2023-01-10T12:00:01.292Z,99027.75
2023-01-10T12:02:28.698Z,99021.97
2023-01-10T12:04:55.703Z,99024.00
2023-01-10T12:07:22.638Z,99039.81
2023-01-10T12:09:49.604Z,99020.91
2023-01-10T12:12:16.509Z,99022.91
2023-01-10T12:14:43.342Z,99044.41
2023-01-10T12:17:10.566Z,99055.34
2023-01-10T12:19:37.589Z,99049.81
2023-01-10T12:22:04.497Z,99042.16
2023-01-10T12:24:31.825Z,99067.38
2023-01-10T12:26:58.649Z,99055.03
2023-01-10T12:29:25.616Z,99059.41
2023-01-10T12:31:52.496Z,99061.34
2023-01-10T12:34:19.346Z,99059.28
2023-01-10T12:36:46.542Z,99064.13
2023-01-10T12:39:13.405Z,99074.38
2023-01-10T12:41:40.434Z,99070.72
2023-01-10T12:44:07.332Z,99081.50
2023-01-10T12:47:04.837Z,99106.22
2023-01-10T12:49:20.975Z,99080.88
2023-01-10T12:51:48.875Z,99079.66
2023-01-10T12:54:15.697Z,99097.91
2023-01-10T12:56:43.082Z,99080.94
2023-01-10T12:59:12.516Z,99094.47
2023-01-10T13:01:39.497Z,99103.38
2023-01-10T13:04:06.488Z,99104.06
2023-01-10T13:06:33.419Z,99117.34
2023-01-10T13:09:00.324Z,99099.97
2023-01-10T13:11:27.131Z,99103.44
2023-01-10T13:13:54.289Z,99110.19
2023-01-10T13:16:21.157Z,99135.06
2023-01-10T13:18:47.949Z,99125.19
2023-01-10T13:21:14.882Z,99123.59
2023-01-10T13:23:42.062Z,99121.19
2023-01-10T13:26:09.241Z,99130.69
2023-01-10T13:28:36.308Z,99128.88
2023-01-10T13:31:03.322Z,99125.13
2023-01-10T13:33:30.216Z,99117.84
2023-01-10T13:35:57.114Z,99154.53
2023-01-10T13:38:24.611Z,99133.53
2023-01-10T13:40:51.412Z,99155.66
2023-01-10T13:43:19.280Z,99154.59
2023-01-10T13:45:46.362Z,99146.28
2023-01-10T13:48:13.228Z,99163.13
2023-01-10T13:50:40.048Z,99161.25
2023-01-10T13:53:06.792Z,99179.59
2023-01-10T13:55:34.784Z,99165.41
2023-01-10T13:58:01.787Z,99165.38
2023-01-10T14:00:28.755Z,99174.75
2023-01-10T14:02:55.651Z,99188.63
2023-01-10T14:05:22.546Z,99210.09
2023-01-10T14:07:49.389Z,99197.53
2023-01-10T14:10:16.382Z,99200.06
2023-01-10T14:12:43.413Z,99203.34
2023-01-10T14:15:10.201Z,99202.66
2023-01-10T14:17:37.081Z,99209.13
2023-01-10T14:20:04.537Z,99203.38
2023-01-10T14:22:31.578Z,99208.72
2023-01-10T14:24:58.509Z,99206.69
2023-01-10T14:27:25.469Z,99219.75
2023-01-10T14:29:52.302Z,99226.75
2023-01-10T14:32:19.094Z,99234.06
2023-01-10T14:34:45.895Z,99205.78
2023-01-10T14:37:13.819Z,99217.69
2023-01-10T14:39:40.801Z,99220.00
2023-01-10T14:42:07.682Z,99218.94
2023-01-10T14:44:34.593Z,99219.59
2023-01-10T14:47:01.457Z,99219.59
2023-01-10T14:49:28.257Z,99227.53
2023-01-10T14:51:55.708Z,99242.03
2023-01-10T14:54:22.502Z,99240.13
2023-01-10T14:56:49.438Z,99281.69
2023-01-10T14:59:16.282Z,99248.47
2023-01-10T15:01:43.292Z,99250.66
2023-01-10T15:04:10.150Z,99274.16
2023-01-10T15:06:36.981Z,99274.22
2023-01-10T15:09:03.856Z,99278.25
2023-01-10T15:11:30.817Z,99281.16
2023-01-10T15:13:59.881Z,99280.50
2023-01-10T15:16:26.965Z,99293.41
2023-01-10T15:18:53.757Z,99307.63
2023-01-10T15:21:20.830Z,99298.25
2023-01-10T15:23:47.981Z,99306.91
2023-01-10T15:26:14.943Z,99296.63
2023-01-10T15:28:42.120Z,99295.59
2023-01-10T15:31:09.100Z,99302.69
2023-01-10T15:33:36.072Z,99319.84
2023-01-10T15:36:03.295Z,99323.13
2023-01-10T15:38:30.319Z,99320.09
2023-01-10T15:40:57.256Z,99340.44
2023-01-10T15:43:24.422Z,99341.94
2023-01-10T15:45:51.285Z,99346.72
2023-01-10T15:48:18.674Z,99346.47
2023-01-10T15:50:45.536Z,99349.09
2023-01-10T15:53:12.831Z,99364.44
2023-01-10T15:55:39.862Z,99378.53
2023-01-10T15:58:06.645Z,99360.63
2023-01-10T16:00:33.939Z,99376.44
2023-01-10T16:03:01.003Z,99371.81
2023-01-10T16:05:28.076Z,99371.28
2023-01-10T16:07:55.359Z,99370.94
2023-01-10T16:10:22.227Z,99363.63
2023-01-10T16:12:49.113Z,99369.44
2023-01-10T16:15:16.433Z,99370.28
2023-01-10T16:17:43.393Z,99377.81
2023-01-10T16:20:10.444Z,99386.09
2023-01-10T16:22:37.352Z,99384.88
2023-01-10T16:25:04.220Z,99388.03
2023-01-10T16:27:31.293Z,99387.41
2023-01-10T16:29:58.321Z,99373.38
2023-01-10T16:32:27.663Z,99378.97
2023-01-10T16:34:54.481Z,99388.75
2023-01-10T16:37:21.617Z,99380.81
2023-01-10T16:39:48.452Z,99387.41
2023-01-10T16:42:15.405Z,99394.50
2023-01-10T16:44:42.667Z,99402.94
2023-01-10T16:47:09.528Z,99404.09
2023-01-10T16:49:36.355Z,99408.00
2023-01-10T16:52:03.431Z,99408.69
2023-01-10T16:54:30.426Z,99405.75
2023-01-10T16:56:57.403Z,99425.59
2023-01-10T16:59:24.347Z,99409.38
2023-01-10T17:01:51.329Z,99406.91
2023-01-10T17:04:18.409Z,99429.50
2023-01-10T17:06:45.329Z,99425.78
2023-01-10T17:09:12.394Z,99417.72
2023-01-10T17:11:39.330Z,99420.94
2023-01-10T17:14:06.267Z,99424.66
2023-01-10T17:16:33.250Z,99420.56
2023-01-10T17:19:00.134Z,99417.44
2023-01-10T17:21:26.929Z,99427.56
2023-01-10T17:23:54.006Z,99431.69
2023-01-10T17:26:20.832Z,99436.00
2023-01-10T17:28:47.785Z,99437.44
2023-01-10T17:31:14.827Z,99436.25
2023-01-10T17:33:41.926Z,99446.47
2023-01-10T17:36:09.195Z,99453.59
2023-01-10T17:38:36.241Z,99440.47
2023-01-10T17:41:03.030Z,99453.38
2023-01-10T17:43:29.910Z,99446.81
2023-01-10T17:45:57.168Z,99453.16
2023-01-10T17:48:24.123Z,99466.09
2023-01-10T17:50:51.119Z,99468.81
2023-01-10T17:53:17.926Z,99468.56
2023-01-10T17:55:44.811Z,99480.50
2023-01-10T17:58:11.654Z,99483.47
2023-01-10T18:00:38.498Z,99485.63
2023-01-10T18:03:05.825Z,99483.16
2023-01-10T18:05:33.540Z,99488.25
2023-01-10T18:08:01.418Z,99490.59
2023-01-10T18:10:28.892Z,99487.66
2023-01-10T18:12:55.921Z,99493.41
2023-01-10T18:15:23.345Z,99487.13
2023-01-10T18:17:51.837Z,99474.63
2023-01-10T18:20:20.071Z,99487.41
2023-01-10T18:22:47.196Z,99482.72
2023-01-10T18:25:14.234Z,99487.19
2023-01-10T18:27:42.623Z,99491.94
2023-01-10T18:30:09.620Z,99515.06
2023-01-10T18:32:36.585Z,99510.06
2023-01-10T18:35:05.043Z,99517.03
2023-01-10T18:37:31.973Z,99495.22
2023-01-10T18:39:58.881Z,99506.59
2023-01-10T18:42:26.183Z,99506.84
2023-01-10T18:44:53.119Z,99515.59
2023-01-10T18:47:20.465Z,99510.09
2023-01-10T18:49:47.430Z,99506.06
2023-01-10T18:52:14.344Z,99516.41
2023-01-10T18:54:41.553Z,99498.03
2023-01-10T18:57:08.672Z,99504.88
2023-01-10T18:59:36.140Z,99500.50
2023-01-10T19:02:03.402Z,99512.44
2023-01-10T19:04:30.430Z,99500.31
2023-01-10T19:06:57.960Z,99509.00
2023-01-10T19:09:25.291Z,99510.53
2023-01-10T19:11:53.187Z,99513.78
2023-01-10T19:14:20.545Z,99511.34
2023-01-10T19:16:48.748Z,99516.88
2023-01-10T19:19:15.870Z,99520.09
2023-01-10T19:21:45.207Z,99514.63
2023-01-10T19:24:13.065Z,99527.94
2023-01-10T19:26:40.557Z,99528.41
2023-01-10T19:29:08.265Z,99526.16
2023-01-10T19:31:35.703Z,99531.75
2023-01-10T19:34:02.807Z,99541.97
2023-01-10T19:36:29.678Z,99540.97
2023-01-10T19:38:56.549Z,99547.56
2023-01-10T19:41:23.699Z,99537.06
2023-01-10T19:43:51.130Z,99532.50
2023-01-10T19:46:18.337Z,99546.13
2023-01-10T19:48:45.410Z,99544.75
2023-01-10T19:51:13.082Z,99546.47
2023-01-10T19:53:39.957Z,99555.47
2023-01-10T19:56:06.836Z,99551.47
2023-01-10T19:58:33.687Z,99551.59
2023-01-10T20:01:01.325Z,99556.63
2023-01-10T20:03:28.744Z,99571.03
2023-01-10T20:05:55.833Z,99566.63
2023-01-10T20:08:23.015Z,99548.59
2023-01-10T20:10:50.902Z,99567.16
2023-01-10T20:13:17.718Z,99543.06
2023-01-10T20:15:45.269Z,99554.19
2023-01-10T20:18:12.191Z,99551.28
2023-01-10T20:20:41.463Z,99538.03
2023-01-10T20:23:08.412Z,99554.44
2023-01-10T20:25:35.347Z,99549.38
2023-01-10T20:28:02.246Z,99563.25
2023-01-10T20:30:29.143Z,99554.19
2023-01-10T20:32:56.823Z,99556.28
2023-01-10T20:35:24.246Z,99560.56
2023-01-10T20:37:51.030Z,99545.59
2023-01-10T20:40:18.437Z,99559.94
2023-01-10T20:42:45.701Z,99567.13
2023-01-10T20:45:12.625Z,99566.66
2023-01-10T20:47:39.566Z,99563.69
2023-01-10T20:50:06.447Z,99553.16
2023-01-10T20:52:33.422Z,99553.91
2023-01-10T20:55:00.828Z,99567.66
2023-01-10T20:57:27.912Z,99572.00
2023-01-10T20:59:54.795Z,99568.81
2023-01-10T21:02:22.076Z,99576.66
2023-01-10T21:04:50.563Z,99574.75
2023-01-10T21:07:17.564Z,99573.25
2023-01-10T21:09:46.583Z,99567.88
2023-01-10T21:12:22.521Z,99567.56
2023-01-10T21:14:50.426Z,99568.84
2023-01-10T21:17:17.649Z,99572.06
2023-01-10T21:19:44.498Z,99573.38
2023-01-10T21:22:11.364Z,99571.38
2023-01-10T21:24:38.592Z,99576.13
2023-01-10T21:27:05.909Z,99556.34
2023-01-10T21:29:32.924Z,99546.53
2023-01-10T21:31:59.831Z,99547.47
2023-01-10T21:34:26.689Z,99545.88
2023-01-10T21:36:53.543Z,99556.25
2023-01-10T21:39:20.354Z,99556.50
2023-01-10T21:41:47.298Z,99551.75
2023-01-10T21:44:14.265Z,99546.34
2023-01-10T21:46:41.224Z,99548.38
2023-01-10T21:49:08.136Z,99550.66
2023-01-10T21:51:34.923Z,99543.97
2023-01-10T21:54:02.899Z,99545.44
2023-01-10T21:56:31.779Z,99556.22
2023-01-10T21:58:58.871Z,99543.56
2023-01-10T22:01:26.039Z,99548.88
2023-01-10T22:03:52.961Z,99545.16
2023-01-10T22:06:22.208Z,99538.25
2023-01-10T22:08:49.150Z,99549.03
2023-01-10T22:11:15.966Z,99548.50
2023-01-10T22:13:42.787Z,99541.22
2023-01-10T22:16:09.654Z,99541.31
2023-01-10T22:18:37.007Z,99537.16
2023-01-10T22:21:03.862Z,99533.59
2023-01-10T22:23:32.952Z,99547.56
2023-01-10T22:25:59.776Z,99541.59
2023-01-10T22:28:26.571Z,99540.34
2023-01-10T22:30:53.558Z,99540.81
2023-01-10T22:33:20.447Z,99539.09
2023-01-10T22:35:47.373Z,99549.47
2023-01-10T22:38:14.357Z,99546.59
2023-01-10T22:40:41.157Z,99553.28
2023-01-10T22:43:08.201Z,99545.78
2023-01-10T22:45:36.236Z,99557.50
2023-01-10T22:48:03.139Z,99558.34
2023-01-10T22:50:30.199Z,99569.59
2023-01-10T22:52:57.112Z,99564.22
2023-01-10T22:55:23.975Z,99564.34
2023-01-10T22:57:51.192Z,99556.88
2023-01-10T23:03:02.617Z,99555.97
2023-01-10T23:05:29.497Z,99557.53
2023-01-10T23:07:56.295Z,99556.63
2023-01-10T23:10:30.253Z,99559.03
2023-01-10T23:12:57.886Z,99567.59
2023-01-10T23:15:24.913Z,99567.75
2023-01-10T23:17:51.666Z,99564.28
2023-01-10T23:20:18.925Z,99562.13
2023-01-10T23:22:46.134Z,99567.75
2023-01-10T23:25:12.906Z,99568.69
2023-01-10T23:27:39.677Z,99563.03
2023-01-10T23:30:06.493Z,99566.69
2023-01-10T23:32:33.419Z,99567.59
2023-01-10T23:35:00.237Z,99562.84
2023-01-10T23:37:27.171Z,99562.00
2023-01-10T23:39:54.296Z,99565.34
2023-01-10T23:42:21.108Z,99564.53
2023-01-10T23:44:48.018Z,99555.09
2023-01-10T23:47:14.985Z,99555.13
2023-01-10T23:49:42.058Z,99551.84
2023-01-10T23:52:08.821Z,99548.25
2023-01-10T23:54:38.129Z,99553.16
2023-01-10T23:57:05.200Z,99548.03
2023-01-10T23:59:32.721Z,99550.47
